sensor_id;sensor_type;location;lat;lon;timestamp;P1;durP1;ratioP1;P2;durP2;ratioP2
55146;SDS011;41039;49.830;23.988;2024-02-14T00:01:41;4.38;;;3.28;;
55146;SDS011;41039;49.830;23.988;2024-02-14T00:04:06;3.63;;;2.40;;
55146;SDS011;41039;49.830;23.988;2024-02-14T00:06:35;4.22;;;3.20;;
55146;SDS011;41039;49.830;23.988;2024-02-14T00:09:01;3.70;;;2.65;;
55146;SDS011;41039;49.830;23.988;2024-02-14T00:11:26;3.58;;;3.08;;
55146;SDS011;41039;49.830;23.988;2024-02-14T00:13:51;4.10;;;2.83;;
55146;SDS011;41039;49.830;23.988;2024-02-14T00:16:17;4.37;;;2.90;;
55146;SDS011;41039;49.830;23.988;2024-02-14T00:18:42;3.47;;;2.10;;
55146;SDS011;41039;49.830;23.988;2024-02-14T00:21:07;4.20;;;2.80;;
55146;SDS011;41039;49.830;23.988;2024-02-14T00:23:32;3.97;;;2.73;;
55146;SDS011;41039;49.830;23.988;2024-02-14T00:25:58;3.95;;;2.67;;
55146;SDS011;41039;49.830;23.988;2024-02-14T00:28:23;5.57;;;2.78;;
55146;SDS011;41039;49.830;23.988;2024-02-14T00:30:51;3.70;;;2.55;;
55146;SDS011;41039;49.830;23.988;2024-02-14T00:33:17;3.50;;;2.57;;
55146;SDS011;41039;49.830;23.988;2024-02-14T00:35:42;3.47;;;2.67;;
55146;SDS011;41039;49.830;23.988;2024-02-14T00:38:07;3.80;;;2.60;;
55146;SDS011;41039;49.830;23.988;2024-02-14T00:40:33;3.40;;;2.20;;
55146;SDS011;41039;49.830;23.988;2024-02-14T00:42:58;3.10;;;2.20;;
55146;SDS011;41039;49.830;23.988;2024-02-14T00:45:23;3.70;;;2.43;;
55146;SDS011;41039;49.830;23.988;2024-02-14T00:47:49;2.72;;;2.03;;
55146;SDS011;41039;49.830;23.988;2024-02-14T00:50:14;3.17;;;2.23;;
55146;SDS011;41039;49.830;23.988;2024-02-14T00:52:39;3.17;;;2.60;;
55146;SDS011;41039;49.830;23.988;2024-02-14T00:55:05;3.40;;;2.43;;
55146;SDS011;41039;49.830;23.988;2024-02-14T00:57:30;3.85;;;2.40;;
55146;SDS011;41039;49.830;23.988;2024-02-14T00:59:55;3.20;;;2.20;;
55146;SDS011;41039;49.830;23.988;2024-02-14T01:02:24;3.05;;;2.03;;
55146;SDS011;41039;49.830;23.988;2024-02-14T01:04:51;3.30;;;2.10;;
55146;SDS011;41039;49.830;23.988;2024-02-14T01:07:16;3.23;;;2.00;;
55146;SDS011;41039;49.830;23.988;2024-02-14T01:09:41;3.35;;;2.30;;
55146;SDS011;41039;49.830;23.988;2024-02-14T01:12:07;3.40;;;2.30;;
55146;SDS011;41039;49.830;23.988;2024-02-14T01:14:32;4.15;;;2.20;;
55146;SDS011;41039;49.830;23.988;2024-02-14T01:16:57;3.13;;;2.25;;
55146;SDS011;41039;49.830;23.988;2024-02-14T01:19:22;3.60;;;2.37;;
55146;SDS011;41039;49.830;23.988;2024-02-14T01:21:49;3.72;;;2.30;;
55146;SDS011;41039;49.830;23.988;2024-02-14T01:24:14;3.17;;;2.22;;
55146;SDS011;41039;49.830;23.988;2024-02-14T01:26:40;3.60;;;2.20;;
55146;SDS011;41039;49.830;23.988;2024-02-14T01:29:05;2.90;;;2.15;;
55146;SDS011;41039;49.830;23.988;2024-02-14T01:31:30;3.50;;;2.08;;
55146;SDS011;41039;49.830;23.988;2024-02-14T01:33:56;3.17;;;2.05;;
55146;SDS011;41039;49.830;23.988;2024-02-14T01:36:22;2.97;;;2.00;;
55146;SDS011;41039;49.830;23.988;2024-02-14T01:38:47;3.05;;;2.15;;
55146;SDS011;41039;49.830;23.988;2024-02-14T01:41:13;2.90;;;1.80;;
55146;SDS011;41039;49.830;23.988;2024-02-14T01:43:38;2.85;;;1.73;;
55146;SDS011;41039;49.830;23.988;2024-02-14T01:46:06;3.33;;;2.35;;
55146;SDS011;41039;49.830;23.988;2024-02-14T01:48:33;3.47;;;2.35;;
55146;SDS011;41039;49.830;23.988;2024-02-14T01:50:58;2.95;;;2.05;;
55146;SDS011;41039;49.830;23.988;2024-02-14T01:53:24;3.20;;;1.80;;
55146;SDS011;41039;49.830;23.988;2024-02-14T01:55:50;2.90;;;1.63;;
55146;SDS011;41039;49.830;23.988;2024-02-14T01:58:16;3.35;;;1.85;;
55146;SDS011;41039;49.830;23.988;2024-02-14T02:00:41;3.22;;;2.10;;
55146;SDS011;41039;49.830;23.988;2024-02-14T02:03:06;2.72;;;1.60;;
55146;SDS011;41039;49.830;23.988;2024-02-14T02:05:31;2.90;;;1.87;;
55146;SDS011;41039;49.830;23.988;2024-02-14T02:07:58;3.05;;;1.98;;
55146;SDS011;41039;49.830;23.988;2024-02-14T02:10:23;2.57;;;1.67;;
55146;SDS011;41039;49.830;23.988;2024-02-14T02:12:50;3.00;;;2.00;;
55146;SDS011;41039;49.830;23.988;2024-02-14T02:15:16;2.67;;;1.90;;
55146;SDS011;41039;49.830;23.988;2024-02-14T02:17:41;3.03;;;1.80;;
55146;SDS011;41039;49.830;23.988;2024-02-14T02:20:07;3.20;;;1.90;;
55146;SDS011;41039;49.830;23.988;2024-02-14T02:22:33;2.35;;;1.73;;
55146;SDS011;41039;49.830;23.988;2024-02-14T02:25:00;4.05;;;2.22;;
55146;SDS011;41039;49.830;23.988;2024-02-14T02:27:26;3.00;;;1.67;;
55146;SDS011;41039;49.830;23.988;2024-02-14T02:29:51;3.13;;;1.83;;
55146;SDS011;41039;49.830;23.988;2024-02-14T02:32:16;2.83;;;1.83;;
55146;SDS011;41039;49.830;23.988;2024-02-14T02:34:43;3.25;;;1.90;;
55146;SDS011;41039;49.830;23.988;2024-02-14T02:37:10;2.38;;;1.63;;
55146;SDS011;41039;49.830;23.988;2024-02-14T02:39:36;3.05;;;1.80;;
55146;SDS011;41039;49.830;23.988;2024-02-14T02:42:02;4.07;;;2.30;;
55146;SDS011;41039;49.830;23.988;2024-02-14T02:44:28;3.08;;;1.98;;
55146;SDS011;41039;49.830;23.988;2024-02-14T02:46:53;2.72;;;1.80;;
55146;SDS011;41039;49.830;23.988;2024-02-14T02:49:18;2.33;;;1.75;;
55146;SDS011;41039;49.830;23.988;2024-02-14T02:51:43;3.47;;;2.13;;
55146;SDS011;41039;49.830;23.988;2024-02-14T02:54:09;2.80;;;1.85;;
55146;SDS011;41039;49.830;23.988;2024-02-14T02:56:36;2.75;;;2.05;;
55146;SDS011;41039;49.830;23.988;2024-02-14T02:59:01;2.80;;;1.90;;
55146;SDS011;41039;49.830;23.988;2024-02-14T03:01:28;2.85;;;2.00;;
55146;SDS011;41039;49.830;23.988;2024-02-14T03:03:55;2.95;;;1.90;;
55146;SDS011;41039;49.830;23.988;2024-02-14T03:06:21;2.50;;;1.65;;
55146;SDS011;41039;49.830;23.988;2024-02-14T03:08:46;3.53;;;2.00;;
55146;SDS011;41039;49.830;23.988;2024-02-14T03:11:14;3.47;;;2.28;;
55146;SDS011;41039;49.830;23.988;2024-02-14T03:13:40;3.20;;;2.05;;
55146;SDS011;41039;49.830;23.988;2024-02-14T03:16:06;2.67;;;1.83;;
55146;SDS011;41039;49.830;23.988;2024-02-14T03:18:32;3.70;;;2.38;;
55146;SDS011;41039;49.830;23.988;2024-02-14T03:20:57;4.07;;;2.08;;
55146;SDS011;41039;49.830;23.988;2024-02-14T03:23:23;2.72;;;1.95;;
55146;SDS011;41039;49.830;23.988;2024-02-14T03:25:48;3.00;;;2.10;;
55146;SDS011;41039;49.830;23.988;2024-02-14T03:28:13;3.10;;;2.22;;
55146;SDS011;41039;49.830;23.988;2024-02-14T03:30:39;3.05;;;2.10;;
55146;SDS011;41039;49.830;23.988;2024-02-14T03:33:04;3.65;;;2.13;;
55146;SDS011;41039;49.830;23.988;2024-02-14T03:35:30;3.00;;;1.90;;
55146;SDS011;41039;49.830;23.988;2024-02-14T03:37:55;2.95;;;2.08;;
55146;SDS011;41039;49.830;23.988;2024-02-14T03:40:21;2.92;;;1.95;;
55146;SDS011;41039;49.830;23.988;2024-02-14T03:42:47;2.90;;;1.80;;
55146;SDS011;41039;49.830;23.988;2024-02-14T03:45:12;3.28;;;1.90;;
55146;SDS011;41039;49.830;23.988;2024-02-14T03:47:37;2.88;;;1.63;;
55146;SDS011;41039;49.830;23.988;2024-02-14T03:50:07;2.78;;;1.80;;
55146;SDS011;41039;49.830;23.988;2024-02-14T03:52:32;3.53;;;2.03;;
55146;SDS011;41039;49.830;23.988;2024-02-14T03:54:57;2.45;;;1.73;;
55146;SDS011;41039;49.830;23.988;2024-02-14T03:57:24;2.65;;;1.77;;
55146;SDS011;41039;49.830;23.988;2024-02-14T03:59:50;3.00;;;1.80;;
55146;SDS011;41039;49.830;23.988;2024-02-14T04:02:15;3.33;;;2.17;;
55146;SDS011;41039;49.830;23.988;2024-02-14T04:04:41;2.50;;;1.60;;
55146;SDS011;41039;49.830;23.988;2024-02-14T04:07:06;3.28;;;2.00;;
55146;SDS011;41039;49.830;23.988;2024-02-14T04:09:33;2.13;;;1.48;;
55146;SDS011;41039;49.830;23.988;2024-02-14T04:11:58;2.58;;;1.65;;
55146;SDS011;41039;49.830;23.988;2024-02-14T04:14:24;3.25;;;1.83;;
55146;SDS011;41039;49.830;23.988;2024-02-14T04:16:50;2.70;;;1.80;;
55146;SDS011;41039;49.830;23.988;2024-02-14T04:19:15;2.60;;;1.48;;
55146;SDS011;41039;49.830;23.988;2024-02-14T04:21:42;2.60;;;1.73;;
55146;SDS011;41039;49.830;23.988;2024-02-14T04:24:07;2.70;;;1.73;;
55146;SDS011;41039;49.830;23.988;2024-02-14T04:26:33;2.88;;;1.77;;
55146;SDS011;41039;49.830;23.988;2024-02-14T04:28:59;2.63;;;1.52;;
55146;SDS011;41039;49.830;23.988;2024-02-14T04:31:24;2.73;;;1.90;;
55146;SDS011;41039;49.830;23.988;2024-02-14T04:33:51;2.33;;;1.52;;
55146;SDS011;41039;49.830;23.988;2024-02-14T04:36:18;3.15;;;1.80;;
55146;SDS011;41039;49.830;23.988;2024-02-14T04:38:48;2.83;;;1.70;;
55146;SDS011;41039;49.830;23.988;2024-02-14T04:41:14;2.42;;;1.77;;
55146;SDS011;41039;49.830;23.988;2024-02-14T04:43:39;2.45;;;1.52;;
55146;SDS011;41039;49.830;23.988;2024-02-14T04:46:04;2.90;;;1.75;;
55146;SDS011;41039;49.830;23.988;2024-02-14T04:48:32;1.95;;;1.30;;
55146;SDS011;41039;49.830;23.988;2024-02-14T04:50:57;2.60;;;1.70;;
55146;SDS011;41039;49.830;23.988;2024-02-14T04:53:22;2.37;;;1.77;;
55146;SDS011;41039;49.830;23.988;2024-02-14T04:55:48;2.93;;;1.90;;
55146;SDS011;41039;49.830;23.988;2024-02-14T04:58:13;2.30;;;1.43;;
55146;SDS011;41039;49.830;23.988;2024-02-14T05:00:38;2.22;;;1.60;;
55146;SDS011;41039;49.830;23.988;2024-02-14T05:03:04;3.27;;;1.83;;
55146;SDS011;41039;49.830;23.988;2024-02-14T05:05:29;2.60;;;1.73;;
55146;SDS011;41039;49.830;23.988;2024-02-14T05:07:55;2.50;;;1.60;;
55146;SDS011;41039;49.830;23.988;2024-02-14T05:10:20;2.33;;;1.50;;
55146;SDS011;41039;49.830;23.988;2024-02-14T05:12:45;3.28;;;1.92;;
55146;SDS011;41039;49.830;23.988;2024-02-14T05:15:10;2.22;;;1.42;;
55146;SDS011;41039;49.830;23.988;2024-02-14T05:17:37;2.30;;;1.50;;
55146;SDS011;41039;49.830;23.988;2024-02-14T05:20:03;2.05;;;1.40;;
55146;SDS011;41039;49.830;23.988;2024-02-14T05:22:34;2.25;;;1.40;;
55146;SDS011;41039;49.830;23.988;2024-02-14T05:25:00;2.50;;;1.50;;
55146;SDS011;41039;49.830;23.988;2024-02-14T05:27:25;1.92;;;1.23;;
55146;SDS011;41039;49.830;23.988;2024-02-14T05:29:51;2.60;;;1.80;;
55146;SDS011;41039;49.830;23.988;2024-02-14T05:32:16;2.78;;;1.65;;
55146;SDS011;41039;49.830;23.988;2024-02-14T05:34:41;2.47;;;1.57;;
55146;SDS011;41039;49.830;23.988;2024-02-14T05:37:06;2.60;;;1.50;;
55146;SDS011;41039;49.830;23.988;2024-02-14T05:39:33;2.50;;;1.45;;
55146;SDS011;41039;49.830;23.988;2024-02-14T05:41:58;2.88;;;1.70;;
55146;SDS011;41039;49.830;23.988;2024-02-14T05:44:24;2.00;;;1.30;;
55146;SDS011;41039;49.830;23.988;2024-02-14T05:46:51;2.47;;;1.42;;
55146;SDS011;41039;49.830;23.988;2024-02-14T05:49:16;2.50;;;1.50;;
55146;SDS011;41039;49.830;23.988;2024-02-14T05:51:42;2.25;;;1.30;;
55146;SDS011;41039;49.830;23.988;2024-02-14T05:54:07;2.30;;;1.48;;
55146;SDS011;41039;49.830;23.988;2024-02-14T05:56:32;2.90;;;1.53;;
55146;SDS011;41039;49.830;23.988;2024-02-14T05:58:57;2.77;;;1.60;;
55146;SDS011;41039;49.830;23.988;2024-02-14T06:01:23;2.38;;;1.58;;
55146;SDS011;41039;49.830;23.988;2024-02-14T06:03:48;2.60;;;1.65;;
55146;SDS011;41039;49.830;23.988;2024-02-14T06:06:13;2.95;;;1.77;;
55146;SDS011;41039;49.830;23.988;2024-02-14T06:08:38;2.47;;;1.65;;
55146;SDS011;41039;49.830;23.988;2024-02-14T06:11:04;2.30;;;1.50;;
55146;SDS011;41039;49.830;23.988;2024-02-14T06:13:29;2.33;;;1.67;;
55146;SDS011;41039;49.830;23.988;2024-02-14T06:15:54;2.85;;;1.67;;
55146;SDS011;41039;49.830;23.988;2024-02-14T06:18:19;2.40;;;1.60;;
55146;SDS011;41039;49.830;23.988;2024-02-14T06:20:45;2.03;;;1.20;;
55146;SDS011;41039;49.830;23.988;2024-02-14T06:23:11;2.75;;;1.55;;
55146;SDS011;41039;49.830;23.988;2024-02-14T06:25:37;3.20;;;1.45;;
55146;SDS011;41039;49.830;23.988;2024-02-14T06:28:02;2.20;;;1.50;;
55146;SDS011;41039;49.830;23.988;2024-02-14T06:30:27;2.45;;;1.58;;
55146;SDS011;41039;49.830;23.988;2024-02-14T06:32:52;2.47;;;1.53;;
55146;SDS011;41039;49.830;23.988;2024-02-14T06:35:18;2.07;;;1.37;;
55146;SDS011;41039;49.830;23.988;2024-02-14T06:37:44;2.08;;;1.40;;
55146;SDS011;41039;49.830;23.988;2024-02-14T06:40:09;3.47;;;1.80;;
55146;SDS011;41039;49.830;23.988;2024-02-14T06:42:35;3.08;;;1.65;;
55146;SDS011;41039;49.830;23.988;2024-02-14T06:45:00;2.63;;;1.60;;
55146;SDS011;41039;49.830;23.988;2024-02-14T06:47:26;2.63;;;1.60;;
55146;SDS011;41039;49.830;23.988;2024-02-14T06:49:54;2.00;;;1.45;;
55146;SDS011;41039;49.830;23.988;2024-02-14T06:52:20;3.88;;;1.85;;
55146;SDS011;41039;49.830;23.988;2024-02-14T06:54:45;2.53;;;1.47;;
55146;SDS011;41039;49.830;23.988;2024-02-14T06:57:10;2.92;;;1.60;;
55146;SDS011;41039;49.830;23.988;2024-02-14T06:59:36;3.33;;;1.50;;
55146;SDS011;41039;49.830;23.988;2024-02-14T07:02:02;2.85;;;1.38;;
55146;SDS011;41039;49.830;23.988;2024-02-14T07:04:28;2.33;;;1.42;;
55146;SDS011;41039;49.830;23.988;2024-02-14T07:06:53;2.20;;;1.30;;
55146;SDS011;41039;49.830;23.988;2024-02-14T07:09:18;2.57;;;1.60;;
55146;SDS011;41039;49.830;23.988;2024-02-14T07:11:44;2.13;;;1.50;;
55146;SDS011;41039;49.830;23.988;2024-02-14T07:14:10;2.20;;;1.45;;
55146;SDS011;41039;49.830;23.988;2024-02-14T07:16:36;2.47;;;1.60;;
55146;SDS011;41039;49.830;23.988;2024-02-14T07:19:01;2.30;;;1.50;;
55146;SDS011;41039;49.830;23.988;2024-02-14T07:21:27;2.10;;;1.38;;
55146;SDS011;41039;49.830;23.988;2024-02-14T07:23:52;2.43;;;1.53;;
55146;SDS011;41039;49.830;23.988;2024-02-14T07:26:18;2.85;;;1.70;;
55146;SDS011;41039;49.830;23.988;2024-02-14T07:28:43;2.50;;;1.67;;
55146;SDS011;41039;49.830;23.988;2024-02-14T07:31:09;4.70;;;1.58;;
55146;SDS011;41039;49.830;23.988;2024-02-14T07:33:34;2.40;;;1.65;;
55146;SDS011;41039;49.830;23.988;2024-02-14T07:36:00;3.45;;;1.70;;
55146;SDS011;41039;49.830;23.988;2024-02-14T07:38:25;3.42;;;1.92;;
55146;SDS011;41039;49.830;23.988;2024-02-14T07:40:50;3.73;;;2.07;;
55146;SDS011;41039;49.830;23.988;2024-02-14T07:43:15;3.43;;;1.83;;
55146;SDS011;41039;49.830;23.988;2024-02-14T07:45:41;3.97;;;1.90;;
55146;SDS011;41039;49.830;23.988;2024-02-14T07:48:06;2.97;;;1.87;;
55146;SDS011;41039;49.830;23.988;2024-02-14T07:50:32;3.15;;;1.73;;
55146;SDS011;41039;49.830;23.988;2024-02-14T07:52:58;2.65;;;1.70;;
55146;SDS011;41039;49.830;23.988;2024-02-14T07:55:23;3.87;;;2.37;;
55146;SDS011;41039;49.830;23.988;2024-02-14T07:57:49;4.30;;;2.13;;
55146;SDS011;41039;49.830;23.988;2024-02-14T08:00:14;4.03;;;2.33;;
55146;SDS011;41039;49.830;23.988;2024-02-14T08:02:47;3.00;;;1.85;;
55146;SDS011;41039;49.830;23.988;2024-02-14T08:05:12;3.03;;;2.00;;
55146;SDS011;41039;49.830;23.988;2024-02-14T08:07:37;3.60;;;2.00;;
55146;SDS011;41039;49.830;23.988;2024-02-14T08:10:03;3.57;;;2.10;;
55146;SDS011;41039;49.830;23.988;2024-02-14T08:12:29;4.85;;;2.13;;
55146;SDS011;41039;49.830;23.988;2024-02-14T08:14:55;3.00;;;1.77;;
55146;SDS011;41039;49.830;23.988;2024-02-14T08:17:20;3.63;;;2.38;;
55146;SDS011;41039;49.830;23.988;2024-02-14T08:19:46;3.33;;;2.17;;
55146;SDS011;41039;49.830;23.988;2024-02-14T08:22:11;4.83;;;2.47;;
55146;SDS011;41039;49.830;23.988;2024-02-14T08:24:37;2.85;;;1.88;;
55146;SDS011;41039;49.830;23.988;2024-02-14T08:27:02;2.83;;;2.05;;
55146;SDS011;41039;49.830;23.988;2024-02-14T08:29:31;4.63;;;2.78;;
55146;SDS011;41039;49.830;23.988;2024-02-14T08:31:56;4.67;;;2.40;;
55146;SDS011;41039;49.830;23.988;2024-02-14T08:34:21;3.03;;;2.17;;
55146;SDS011;41039;49.830;23.988;2024-02-14T08:36:47;4.80;;;2.35;;
55146;SDS011;41039;49.830;23.988;2024-02-14T08:39:12;3.42;;;2.33;;
55146;SDS011;41039;49.830;23.988;2024-02-14T08:41:38;4.45;;;2.90;;
55146;SDS011;41039;49.830;23.988;2024-02-14T08:44:03;6.05;;;2.50;;
55146;SDS011;41039;49.830;23.988;2024-02-14T08:46:30;3.70;;;2.30;;
55146;SDS011;41039;49.830;23.988;2024-02-14T08:48:55;4.30;;;2.20;;
55146;SDS011;41039;49.830;23.988;2024-02-14T08:51:20;3.08;;;2.20;;
55146;SDS011;41039;49.830;23.988;2024-02-14T08:53:46;5.18;;;2.72;;
55146;SDS011;41039;49.830;23.988;2024-02-14T08:56:11;3.65;;;2.35;;
55146;SDS011;41039;49.830;23.988;2024-02-14T08:58:37;3.22;;;2.15;;
55146;SDS011;41039;49.830;23.988;2024-02-14T09:01:02;6.55;;;2.00;;
55146;SDS011;41039;49.830;23.988;2024-02-14T09:03:27;2.75;;;1.98;;
55146;SDS011;41039;49.830;23.988;2024-02-14T09:05:53;6.03;;;2.55;;
55146;SDS011;41039;49.830;23.988;2024-02-14T09:08:19;4.07;;;2.72;;
55146;SDS011;41039;49.830;23.988;2024-02-14T09:10:45;3.83;;;2.63;;
55146;SDS011;41039;49.830;23.988;2024-02-14T09:13:11;4.55;;;2.95;;
55146;SDS011;41039;49.830;23.988;2024-02-14T09:15:36;4.10;;;2.63;;
55146;SDS011;41039;49.830;23.988;2024-02-14T09:18:01;3.67;;;2.35;;
55146;SDS011;41039;49.830;23.988;2024-02-14T09:20:28;3.60;;;2.45;;
55146;SDS011;41039;49.830;23.988;2024-02-14T09:22:53;5.68;;;3.00;;
55146;SDS011;41039;49.830;23.988;2024-02-14T09:25:19;6.40;;;2.75;;
55146;SDS011;41039;49.830;23.988;2024-02-14T09:27:44;5.35;;;3.00;;
55146;SDS011;41039;49.830;23.988;2024-02-14T09:30:12;6.07;;;3.63;;
55146;SDS011;41039;49.830;23.988;2024-02-14T09:32:37;6.03;;;3.10;;
55146;SDS011;41039;49.830;23.988;2024-02-14T09:35:02;4.70;;;2.80;;
55146;SDS011;41039;49.830;23.988;2024-02-14T09:37:31;4.05;;;3.05;;
55146;SDS011;41039;49.830;23.988;2024-02-14T09:39:57;4.10;;;3.05;;
55146;SDS011;41039;49.830;23.988;2024-02-14T09:42:24;4.82;;;3.25;;
55146;SDS011;41039;49.830;23.988;2024-02-14T09:44:53;4.95;;;2.95;;
55146;SDS011;41039;49.830;23.988;2024-02-14T09:47:21;5.45;;;3.70;;
55146;SDS011;41039;49.830;23.988;2024-02-14T09:49:47;4.70;;;3.60;;
55146;SDS011;41039;49.830;23.988;2024-02-14T09:52:13;7.38;;;3.72;;
55146;SDS011;41039;49.830;23.988;2024-02-14T09:54:40;4.95;;;3.65;;
55146;SDS011;41039;49.830;23.988;2024-02-14T09:57:05;4.20;;;2.78;;
55146;SDS011;41039;49.830;23.988;2024-02-14T09:59:31;4.68;;;3.28;;
55146;SDS011;41039;49.830;23.988;2024-02-14T10:01:57;4.30;;;2.65;;
55146;SDS011;41039;49.830;23.988;2024-02-14T10:04:22;4.00;;;2.67;;
55146;SDS011;41039;49.830;23.988;2024-02-14T10:06:49;4.80;;;2.42;;
55146;SDS011;41039;49.830;23.988;2024-02-14T10:09:18;4.03;;;2.33;;
55146;SDS011;41039;49.830;23.988;2024-02-14T10:11:44;4.07;;;2.30;;
55146;SDS011;41039;49.830;23.988;2024-02-14T10:14:10;3.75;;;2.42;;
55146;SDS011;41039;49.830;23.988;2024-02-14T10:16:38;4.20;;;2.58;;
55146;SDS011;41039;49.830;23.988;2024-02-14T10:19:03;5.55;;;2.55;;
55146;SDS011;41039;49.830;23.988;2024-02-14T10:21:29;5.20;;;2.50;;
55146;SDS011;41039;49.830;23.988;2024-02-14T10:23:54;4.55;;;2.50;;
55146;SDS011;41039;49.830;23.988;2024-02-14T10:26:22;4.22;;;2.20;;
55146;SDS011;41039;49.830;23.988;2024-02-14T10:28:48;3.47;;;2.37;;
55146;SDS011;41039;49.830;23.988;2024-02-14T10:31:15;5.07;;;2.20;;
55146;SDS011;41039;49.830;23.988;2024-02-14T10:33:41;5.18;;;2.80;;
55146;SDS011;41039;49.830;23.988;2024-02-14T10:36:09;3.40;;;2.40;;
55146;SDS011;41039;49.830;23.988;2024-02-14T10:38:37;3.80;;;2.10;;
55146;SDS011;41039;49.830;23.988;2024-02-14T10:41:02;3.70;;;2.50;;
55146;SDS011;41039;49.830;23.988;2024-02-14T10:43:28;3.40;;;2.35;;
55146;SDS011;41039;49.830;23.988;2024-02-14T10:45:54;3.60;;;2.10;;
55146;SDS011;41039;49.830;23.988;2024-02-14T10:48:19;4.20;;;2.30;;
55146;SDS011;41039;49.830;23.988;2024-02-14T10:50:47;3.08;;;2.17;;
55146;SDS011;41039;49.830;23.988;2024-02-14T10:53:14;3.40;;;1.98;;
55146;SDS011;41039;49.830;23.988;2024-02-14T10:55:41;3.40;;;2.35;;
55146;SDS011;41039;49.830;23.988;2024-02-14T10:58:08;5.45;;;2.25;;
55146;SDS011;41039;49.830;23.988;2024-02-14T11:00:35;2.72;;;2.05;;
55146;SDS011;41039;49.830;23.988;2024-02-14T11:03:00;5.55;;;2.72;;
55146;SDS011;41039;49.830;23.988;2024-02-14T11:05:26;3.05;;;2.10;;
55146;SDS011;41039;49.830;23.988;2024-02-14T11:07:52;3.58;;;2.58;;
55146;SDS011;41039;49.830;23.988;2024-02-14T11:10:18;4.32;;;2.28;;
55146;SDS011;41039;49.830;23.988;2024-02-14T11:12:43;3.45;;;2.30;;
55146;SDS011;41039;49.830;23.988;2024-02-14T11:15:23;3.50;;;2.50;;
55146;SDS011;41039;49.830;23.988;2024-02-14T11:17:49;3.30;;;2.15;;
55146;SDS011;41039;49.830;23.988;2024-02-14T11:23:00;3.60;;;2.67;;
55146;SDS011;41039;49.830;23.988;2024-02-14T11:25:43;3.38;;;2.17;;
55146;SDS011;41039;49.830;23.988;2024-02-14T11:28:12;3.75;;;2.80;;
55146;SDS011;41039;49.830;23.988;2024-02-14T11:30:39;3.65;;;2.55;;
55146;SDS011;41039;49.830;23.988;2024-02-14T11:33:20;3.08;;;2.22;;
55146;SDS011;41039;49.830;23.988;2024-02-14T11:35:53;3.95;;;2.95;;
55146;SDS011;41039;49.830;23.988;2024-02-14T11:38:21;4.00;;;3.23;;
55146;SDS011;41039;49.830;23.988;2024-02-14T11:40:47;4.72;;;2.90;;
55146;SDS011;41039;49.830;23.988;2024-02-14T11:45:38;6.63;;;2.38;;
55146;SDS011;41039;49.830;23.988;2024-02-14T11:48:07;5.03;;;2.42;;
55146;SDS011;41039;49.830;23.988;2024-02-14T11:50:32;4.72;;;2.20;;
55146;SDS011;41039;49.830;23.988;2024-02-14T11:52:58;2.90;;;1.83;;
55146;SDS011;41039;49.830;23.988;2024-02-14T11:55:28;4.63;;;2.85;;
55146;SDS011;41039;49.830;23.988;2024-02-14T11:57:54;5.25;;;3.08;;
55146;SDS011;41039;49.830;23.988;2024-02-14T12:00:19;3.95;;;2.70;;
55146;SDS011;41039;49.830;23.988;2024-02-14T12:02:45;5.07;;;3.00;;
55146;SDS011;41039;49.830;23.988;2024-02-14T12:05:10;5.32;;;2.60;;
55146;SDS011;41039;49.830;23.988;2024-02-14T12:07:35;4.25;;;3.17;;
55146;SDS011;41039;49.830;23.988;2024-02-14T12:10:01;4.07;;;2.95;;
55146;SDS011;41039;49.830;23.988;2024-02-14T12:12:26;3.63;;;2.80;;
55146;SDS011;41039;49.830;23.988;2024-02-14T12:14:52;5.72;;;3.30;;
55146;SDS011;41039;49.830;23.988;2024-02-14T12:17:18;5.97;;;3.00;;
55146;SDS011;41039;49.830;23.988;2024-02-14T12:19:44;3.33;;;2.53;;
55146;SDS011;41039;49.830;23.988;2024-02-14T12:22:09;4.40;;;3.05;;
55146;SDS011;41039;49.830;23.988;2024-02-14T12:27:08;5.82;;;3.55;;
55146;SDS011;41039;49.830;23.988;2024-02-14T12:29:34;6.57;;;4.28;;
55146;SDS011;41039;49.830;23.988;2024-02-14T12:32:03;9.65;;;8.07;;
55146;SDS011;41039;49.830;23.988;2024-02-14T12:34:29;11.40;;;8.35;;
55146;SDS011;41039;49.830;23.988;2024-02-14T12:36:55;10.80;;;6.53;;
55146;SDS011;41039;49.830;23.988;2024-02-14T12:39:20;9.10;;;6.20;;
55146;SDS011;41039;49.830;23.988;2024-02-14T12:41:45;10.50;;;6.83;;
55146;SDS011;41039;49.830;23.988;2024-02-14T12:44:10;6.53;;;5.83;;
55146;SDS011;41039;49.830;23.988;2024-02-14T12:46:36;6.85;;;6.00;;
55146;SDS011;41039;49.830;23.988;2024-02-14T12:49:03;9.65;;;6.03;;
55146;SDS011;41039;49.830;23.988;2024-02-14T12:51:28;6.40;;;5.30;;
55146;SDS011;41039;49.830;23.988;2024-02-14T12:53:54;6.22;;;5.60;;
55146;SDS011;41039;49.830;23.988;2024-02-14T12:56:19;6.53;;;5.27;;
55146;SDS011;41039;49.830;23.988;2024-02-14T12:58:44;6.57;;;4.83;;
55146;SDS011;41039;49.830;23.988;2024-02-14T13:01:11;5.85;;;4.80;;
55146;SDS011;41039;49.830;23.988;2024-02-14T13:03:37;5.90;;;5.13;;
55146;SDS011;41039;49.830;23.988;2024-02-14T13:06:03;5.97;;;5.13;;
55146;SDS011;41039;49.830;23.988;2024-02-14T13:08:28;5.75;;;5.05;;
55146;SDS011;41039;49.830;23.988;2024-02-14T13:10:53;5.70;;;4.90;;
55146;SDS011;41039;49.830;23.988;2024-02-14T13:13:19;6.45;;;4.97;;
55146;SDS011;41039;49.830;23.988;2024-02-14T13:15:44;6.30;;;5.57;;
55146;SDS011;41039;49.830;23.988;2024-02-14T13:18:10;7.00;;;5.25;;
55146;SDS011;41039;49.830;23.988;2024-02-14T13:20:35;6.40;;;5.38;;
55146;SDS011;41039;49.830;23.988;2024-02-14T13:23:00;5.93;;;4.88;;
55146;SDS011;41039;49.830;23.988;2024-02-14T13:25:27;6.40;;;5.32;;
55146;SDS011;41039;49.830;23.988;2024-02-14T13:27:52;6.68;;;5.20;;
55146;SDS011;41039;49.830;23.988;2024-02-14T13:30:19;6.45;;;5.05;;
55146;SDS011;41039;49.830;23.988;2024-02-14T13:32:44;6.05;;;5.35;;
55146;SDS011;41039;49.830;23.988;2024-02-14T13:35:09;5.90;;;5.00;;
55146;SDS011;41039;49.830;23.988;2024-02-14T13:37:36;7.32;;;5.38;;
55146;SDS011;41039;49.830;23.988;2024-02-14T13:40:01;8.32;;;4.93;;
55146;SDS011;41039;49.830;23.988;2024-02-14T13:42:29;5.72;;;3.50;;
55146;SDS011;41039;49.830;23.988;2024-02-14T13:44:54;3.97;;;2.88;;
55146;SDS011;41039;49.830;23.988;2024-02-14T13:47:19;5.13;;;2.70;;
55146;SDS011;41039;49.830;23.988;2024-02-14T13:49:46;4.57;;;2.78;;
55146;SDS011;41039;49.830;23.988;2024-02-14T13:52:11;4.68;;;3.00;;
55146;SDS011;41039;49.830;23.988;2024-02-14T13:54:37;5.70;;;3.28;;
55146;SDS011;41039;49.830;23.988;2024-02-14T13:57:02;7.33;;;3.20;;
55146;SDS011;41039;49.830;23.988;2024-02-14T13:59:27;5.82;;;3.22;;
55146;SDS011;41039;49.830;23.988;2024-02-14T14:01:53;4.47;;;3.42;;
55146;SDS011;41039;49.830;23.988;2024-02-14T14:04:18;4.23;;;3.40;;
55146;SDS011;41039;49.830;23.988;2024-02-14T14:06:43;4.17;;;3.33;;
55146;SDS011;41039;49.830;23.988;2024-02-14T14:09:08;4.30;;;3.43;;
55146;SDS011;41039;49.830;23.988;2024-02-14T14:11:35;4.65;;;3.28;;
55146;SDS011;41039;49.830;23.988;2024-02-14T14:14:00;4.30;;;3.30;;
55146;SDS011;41039;49.830;23.988;2024-02-14T14:16:26;4.28;;;2.83;;
55146;SDS011;41039;49.830;23.988;2024-02-14T14:18:51;4.35;;;3.50;;
55146;SDS011;41039;49.830;23.988;2024-02-14T14:21:16;4.70;;;3.00;;
55146;SDS011;41039;49.830;23.988;2024-02-14T14:23:42;5.25;;;3.83;;
55146;SDS011;41039;49.830;23.988;2024-02-14T14:26:07;4.72;;;3.45;;
55146;SDS011;41039;49.830;23.988;2024-02-14T14:28:33;5.38;;;3.72;;
55146;SDS011;41039;49.830;23.988;2024-02-14T14:30:58;5.23;;;3.33;;
55146;SDS011;41039;49.830;23.988;2024-02-14T14:33:25;4.75;;;3.30;;